Caldwell, Texas
Current Conditions -  °F | °C
As of 3:15 AM on Friday 19 Dec 2014 (Local Time) from KRWV Reporting Station
Thunderstorm Thunderstorm  
Wind Chill: 50°   Ceiling: 500
Heat Index: 50°   Visibility: 3mi
Dew Point: 50°   Wind: 9mph
Humidity: 100%   Direction: 350°N
Pressure: 30.07"   Gusts: NA
Location:  30.53°N, 96.69°W
Report Text: KRWV 190915Z AUTO 35008KT 3SM VCTS +RA OVC005 10/10 A3007 RMK AO2 LTG DSNT SW-N P0008
Loading
Personal Weather Stations






























Interactive Weather Map New forecast layout! Learn more

10-Day Weather Forecast

Advertisements
Track Severe Weather on mobile